KIAD/IAD METAR and TAF weather

Enter ICAO airport designator
Station Type Date Time Source
KIAD METAR 2021/01/16 02:02 UTC NOAA

KIAD 160202Z 00000KT 6SM BR FEW009 BKN021 OVC028 07/06 A2969 RMK AO2 T00720061


Station Type Date Time Source
KIAD Decoded METAR 2021/01/16 02:02 UTC NOAA

DULLES INTERNATIONAL AIRPORT, VA, United States (KIAD) 38-56N 077-27W 93M
Jan 15, 2021 - 09:02 PM EST / 2021.01.16 0202 UTC
Wind: Calm:0
Visibility: 6 mile(s):0
Sky conditions: overcast
Weather: mist
Temperature: 45.0 F (7.2 C)
Dew Point: 43.0 F (6.1 C)
Relative Humidity: 92%
Pressure (altimeter): 29.69 in. Hg (1005 hPa)
ob: KIAD 160202Z 00000KT 6SM BR FEW009 BKN021 OVC028 07/06 A2969 RMK AO2 T00720061
cycle: 2

Station Type Date Time Source
KIAD TAF 2021/01/15 21:03 UTC NOAA

TAF
AMD KIAD 152100Z 1521/1624 14008KT P6SM SCT035 BKN100 BKN250
FM152200 14010KT 6SM -SHRA OVC035
FM160000 13008KT 5SM -SHRA BR OVC025
FM160200 13007KT 4SM -SHRA BR OVC008
FM160700 VRB03KT 6SM BR SCT010 BKN030 BKN150
FM161000 30005KT P6SM BKN060
FM161600 28007KT P6SM BKN100

Example: see airport list